createdAt,value
2018-08-30T00:00:27.761Z,16.30
2018-08-30T00:02:56.856Z,16.30
2018-08-30T00:05:25.857Z,16.30
2018-08-30T00:07:54.924Z,16.20
2018-08-30T00:10:24.685Z,16.20
2018-08-30T00:12:53.715Z,16.20
2018-08-30T00:15:22.786Z,16.10
2018-08-30T00:17:51.808Z,16.10
2018-08-30T00:20:20.880Z,16.00
2018-08-30T00:22:49.924Z,16.00
2018-08-30T00:25:18.902Z,16.00
2018-08-30T00:27:48.017Z,15.90
2018-08-30T00:30:17.050Z,15.90
2018-08-30T00:32:46.067Z,15.90
2018-08-30T00:35:15.140Z,15.90
2018-08-30T00:37:44.138Z,15.80
2018-08-30T00:40:13.181Z,15.80
2018-08-30T00:42:42.209Z,15.80
2018-08-30T00:45:11.270Z,15.70
2018-08-30T00:47:43.657Z,15.70
2018-08-30T00:50:12.798Z,15.60
2018-08-30T00:52:41.790Z,15.70
2018-08-30T00:55:11.193Z,15.60
2018-08-30T00:57:40.264Z,15.50
2018-08-30T01:00:09.541Z,15.50
2018-08-30T01:02:38.632Z,15.50
2018-08-30T01:05:08.096Z,15.50
2018-08-30T01:07:37.443Z,15.50
2018-08-30T01:10:06.753Z,15.50
2018-08-30T01:12:39.889Z,15.50
2018-08-30T01:15:08.948Z,15.50
2018-08-30T01:17:37.990Z,15.50
2018-08-30T01:20:07.413Z,15.50
2018-08-30T01:22:36.457Z,15.50
2018-08-30T01:25:05.501Z,15.50
2018-08-30T01:27:34.512Z,15.50
2018-08-30T01:30:03.689Z,15.50
2018-08-30T01:32:32.835Z,15.50
2018-08-30T01:35:01.886Z,15.40
2018-08-30T01:37:30.881Z,15.30
2018-08-30T01:39:59.948Z,15.20
2018-08-30T01:42:28.944Z,15.30
2018-08-30T01:44:57.988Z,15.20
2018-08-30T01:47:27.056Z,15.20
2018-08-30T01:49:56.232Z,15.20
2018-08-30T01:52:25.313Z,15.20
2018-08-30T01:54:54.310Z,15.20
2018-08-30T01:57:23.356Z,15.10
2018-08-30T01:59:52.482Z,15.10
2018-08-30T02:02:21.537Z,15.00
2018-08-30T02:04:50.588Z,15.00
2018-08-30T02:07:19.641Z,14.90
2018-08-30T02:09:48.679Z,14.90
2018-08-30T02:12:17.682Z,14.90
2018-08-30T02:14:46.727Z,14.90
2018-08-30T02:17:15.797Z,14.90
2018-08-30T02:19:44.805Z,14.90
2018-08-30T02:22:13.881Z,14.90
2018-08-30T02:24:42.952Z,14.90
2018-08-30T02:27:12.049Z,14.90
2018-08-30T02:29:41.134Z,14.90
2018-08-30T02:32:10.221Z,14.90
2018-08-30T02:34:39.268Z,14.90
2018-08-30T02:37:08.285Z,14.90
2018-08-30T02:39:38.256Z,14.90
2018-08-30T02:42:07.285Z,14.80
2018-08-30T02:44:36.332Z,14.80
2018-08-30T02:47:07.145Z,14.80
2018-08-30T02:49:36.139Z,14.80
2018-08-30T02:52:05.244Z,14.80
2018-08-30T02:54:34.675Z,14.80
2018-08-30T02:57:03.722Z,14.70
2018-08-30T02:59:33.633Z,14.70
2018-08-30T03:02:02.729Z,14.70
2018-08-30T03:04:31.743Z,14.60
2018-08-30T03:07:00.797Z,14.50
2018-08-30T03:09:29.900Z,14.50
2018-08-30T03:11:58.971Z,14.50
2018-08-30T03:14:28.013Z,14.50
2018-08-30T03:16:57.055Z,14.50
2018-08-30T03:19:26.097Z,14.50
2018-08-30T03:21:55.185Z,14.50
2018-08-30T03:24:24.218Z,14.50
2018-08-30T03:26:53.222Z,14.60
2018-08-30T03:29:22.291Z,14.60
2018-08-30T03:31:51.289Z,14.60
2018-08-30T03:34:20.327Z,14.50
2018-08-30T03:36:49.349Z,14.60
2018-08-30T03:39:18.437Z,14.60
2018-08-30T03:41:47.474Z,14.60
2018-08-30T03:44:16.488Z,14.60
2018-08-30T03:46:45.561Z,14.60
2018-08-30T03:49:14.605Z,14.60
2018-08-30T03:51:43.685Z,14.60
2018-08-30T03:54:12.836Z,14.50
2018-08-30T03:56:41.935Z,14.50
2018-08-30T03:59:10.985Z,14.50
2018-08-30T04:01:40.954Z,14.50
2018-08-30T04:04:10.007Z,14.50
2018-08-30T04:06:39.040Z,14.50
2018-08-30T04:09:09.322Z,14.40
2018-08-30T04:11:38.320Z,14.40
2018-08-30T04:14:07.484Z,14.40
2018-08-30T04:16:36.508Z,14.40
2018-08-30T04:19:07.656Z,14.40
2018-08-30T04:21:37.339Z,14.40
2018-08-30T04:24:08.182Z,14.40
2018-08-30T04:26:37.270Z,14.40
2018-08-30T04:29:06.325Z,14.40
2018-08-30T04:31:35.505Z,14.40
2018-08-30T04:34:04.453Z,14.40
2018-08-30T04:36:33.525Z,14.40
2018-08-30T04:39:02.568Z,14.40
2018-08-30T04:41:31.668Z,14.40
2018-08-30T04:44:00.720Z,14.40
2018-08-30T04:46:29.773Z,14.40
2018-08-30T04:48:58.779Z,14.30
2018-08-30T04:51:27.826Z,14.30
2018-08-30T04:53:56.960Z,14.30
2018-08-30T04:56:26.103Z,14.30
2018-08-30T04:58:55.171Z,14.40
2018-08-30T05:01:24.225Z,14.40
2018-08-30T05:03:53.301Z,14.50
2018-08-30T05:06:22.350Z,14.60
2018-08-30T05:08:51.337Z,14.70
2018-08-30T05:11:20.399Z,14.70
2018-08-30T05:13:49.477Z,14.80
2018-08-30T05:16:18.541Z,14.90
2018-08-30T05:18:47.615Z,15.00
2018-08-30T05:21:16.753Z,15.10
2018-08-30T05:23:45.869Z,15.20
2018-08-30T05:26:14.886Z,15.30
2018-08-30T05:28:43.934Z,15.40
2018-08-30T05:31:12.969Z,15.40
2018-08-30T05:33:42.005Z,15.50
2018-08-30T05:36:11.082Z,15.60
2018-08-30T05:38:40.169Z,15.70
2018-08-30T05:41:09.215Z,15.70
2018-08-30T05:43:38.300Z,15.70
2018-08-30T05:46:07.442Z,15.70
2018-08-30T05:48:36.524Z,15.80
2018-08-30T05:51:05.647Z,15.80
2018-08-30T05:53:34.711Z,15.90
2018-08-30T05:56:03.841Z,15.90
2018-08-30T05:58:32.918Z,15.90
2018-08-30T06:01:01.987Z,16.00
2018-08-30T06:03:31.329Z,16.20
2018-08-30T06:06:00.354Z,16.20
2018-08-30T06:08:29.494Z,16.30
2018-08-30T06:10:58.540Z,16.40
2018-08-30T06:13:27.589Z,16.40
2018-08-30T06:15:56.814Z,16.50
2018-08-30T06:18:25.826Z,16.60
2018-08-30T06:20:55.814Z,16.80
2018-08-30T06:23:24.897Z,16.90
2018-08-30T06:25:53.948Z,17.10
2018-08-30T06:28:23.010Z,17.20
2018-08-30T06:30:52.102Z,17.30
2018-08-30T06:33:21.152Z,17.40
2018-08-30T06:35:50.225Z,17.50
2018-08-30T06:38:19.312Z,17.60
2018-08-30T06:40:48.376Z,17.70
2018-08-30T06:43:17.506Z,17.80
2018-08-30T06:45:46.616Z,17.90
2018-08-30T06:48:15.688Z,18.00
2018-08-30T06:50:44.846Z,18.10
2018-08-30T06:53:14.316Z,18.20
2018-08-30T06:55:43.338Z,18.30
2018-08-30T06:58:12.478Z,18.40
2018-08-30T07:00:41.494Z,18.40
2018-08-30T07:03:10.553Z,18.50
2018-08-30T07:05:39.669Z,18.50
2018-08-30T07:08:08.708Z,18.60
2018-08-30T07:12:46.129Z,18.70
2018-08-30T07:15:15.294Z,18.70
2018-08-30T07:17:44.391Z,19.00
2018-08-30T07:20:13.484Z,19.10
2018-08-30T07:22:42.566Z,19.20
2018-08-30T07:25:11.566Z,19.40
2018-08-30T07:27:40.789Z,19.60
2018-08-30T07:30:12.263Z,19.60
2018-08-30T07:32:41.437Z,19.80
2018-08-30T07:35:10.698Z,19.90
2018-08-30T07:37:39.712Z,20.00
2018-08-30T07:44:46.176Z,20.20
2018-08-30T07:47:15.268Z,20.50
2018-08-30T07:49:45.297Z,20.60
2018-08-30T07:52:14.530Z,20.70
2018-08-30T07:54:43.605Z,20.90
2018-08-30T07:57:12.650Z,21.00
2018-08-30T07:59:41.709Z,21.20
2018-08-30T08:02:10.741Z,21.30
2018-08-30T08:04:39.781Z,21.40
2018-08-30T08:07:09.044Z,21.50
2018-08-30T08:09:38.135Z,21.60
2018-08-30T08:12:07.476Z,21.80
2018-08-30T08:14:36.612Z,21.80
2018-08-30T08:17:06.965Z,22.00
2018-08-30T08:19:36.112Z,22.20
2018-08-30T08:22:05.209Z,22.40
2018-08-30T08:24:34.815Z,22.50
2018-08-30T08:27:04.496Z,22.70
2018-08-30T08:29:35.178Z,22.80
2018-08-30T08:32:05.104Z,22.90
2018-08-30T08:34:34.341Z,23.00
2018-08-30T08:37:04.084Z,23.20
2018-08-30T08:39:33.220Z,23.30
2018-08-30T08:42:02.477Z,23.50
2018-08-30T08:44:31.577Z,23.60
2018-08-30T08:47:01.586Z,23.70
2018-08-30T08:49:30.656Z,23.90
2018-08-30T08:51:59.853Z,24.00
2018-08-30T08:54:28.973Z,24.00
2018-08-30T08:56:58.254Z,24.20
2018-08-30T08:59:27.346Z,24.30
2018-08-30T09:06:34.253Z,24.70
2018-08-30T09:09:05.709Z,25.00
2018-08-30T09:11:36.801Z,25.10
2018-08-30T09:14:06.860Z,25.20
2018-08-30T09:16:36.571Z,25.30
2018-08-30T09:19:06.859Z,25.40
2018-08-30T09:21:36.948Z,25.60
2018-08-30T09:24:06.339Z,25.70
2018-08-30T09:26:36.064Z,25.70
2018-08-30T09:29:05.321Z,25.70
2018-08-30T09:31:35.571Z,25.80
2018-08-30T09:34:06.016Z,25.90
2018-08-30T09:36:35.226Z,26.00
2018-08-30T09:39:05.636Z,26.20
2018-08-30T09:41:35.871Z,26.30
2018-08-30T09:44:05.378Z,26.40
2018-08-30T09:46:35.185Z,26.50
2018-08-30T09:49:05.384Z,26.60
2018-08-30T09:51:35.983Z,26.80
2018-08-30T09:54:05.260Z,27.00
2018-08-30T09:56:35.046Z,27.10
2018-08-30T09:59:05.930Z,27.30
2018-08-30T10:01:40.158Z,27.40
2018-08-30T10:04:09.243Z,27.50
2018-08-30T10:06:39.057Z,27.60
2018-08-30T10:09:10.698Z,27.70
2018-08-30T10:11:40.293Z,27.80
2018-08-30T10:14:10.102Z,27.90
2018-08-30T10:16:39.142Z,28.00
2018-08-30T10:19:08.382Z,28.10
2018-08-30T10:21:37.585Z,28.20
2018-08-30T10:24:06.705Z,28.40
2018-08-30T10:26:36.692Z,28.50
2018-08-30T10:29:05.955Z,28.60
2018-08-30T10:31:35.099Z,28.80
2018-08-30T10:34:04.193Z,28.90
2018-08-30T10:36:37.285Z,28.80
2018-08-30T10:39:08.106Z,28.70
2018-08-30T10:41:38.415Z,28.80
2018-08-30T10:44:08.891Z,28.90
2018-08-30T10:46:38.004Z,29.10
2018-08-30T10:49:07.109Z,29.20
2018-08-30T10:51:36.179Z,29.30
2018-08-30T10:54:05.343Z,29.60
2018-08-30T10:56:35.307Z,29.70
2018-08-30T11:01:11.828Z,29.90
2018-08-30T11:03:41.393Z,30.10
2018-08-30T11:06:10.982Z,30.10
2018-08-30T11:08:40.697Z,30.20
2018-08-30T11:11:10.421Z,30.00
2018-08-30T11:13:39.662Z,29.90
2018-08-30T11:16:08.786Z,30.00
2018-08-30T11:18:37.980Z,30.20
2018-08-30T11:21:07.741Z,30.50
2018-08-30T11:23:36.861Z,30.70
2018-08-30T11:26:05.959Z,30.90
2018-08-30T11:28:35.053Z,31.00
2018-08-30T11:31:04.199Z,31.10
2018-08-30T11:33:33.297Z,31.10
2018-08-30T11:36:02.378Z,31.30
2018-08-30T11:38:32.729Z,31.50
2018-08-30T11:41:02.638Z,31.50
2018-08-30T11:43:31.849Z,31.50
2018-08-30T11:46:01.291Z,31.70
2018-08-30T11:48:30.308Z,31.70
2018-08-30T11:50:59.534Z,31.80
2018-08-30T11:53:28.592Z,31.80
2018-08-30T11:55:57.696Z,31.80
2018-08-30T11:58:26.746Z,31.80
2018-08-30T12:00:55.847Z,31.80
2018-08-30T12:03:24.880Z,31.70
2018-08-30T12:05:54.167Z,31.70
2018-08-30T12:08:23.239Z,31.80
2018-08-30T12:10:52.371Z,32.00
2018-08-30T12:13:21.584Z,31.90
2018-08-30T12:15:50.673Z,31.80
2018-08-30T12:18:19.759Z,31.80
2018-08-30T12:20:48.905Z,31.90
2018-08-30T12:23:17.922Z,31.90
2018-08-30T12:25:47.021Z,31.90
2018-08-30T12:28:16.125Z,32.00
2018-08-30T12:30:45.171Z,32.10
2018-08-30T12:33:14.241Z,32.10
2018-08-30T12:35:43.442Z,32.20
2018-08-30T12:38:12.604Z,32.10
2018-08-30T12:40:41.768Z,32.10
2018-08-30T12:43:10.866Z,32.20
2018-08-30T12:45:39.920Z,32.40
2018-08-30T12:48:08.979Z,32.50
2018-08-30T12:50:38.198Z,32.30
2018-08-30T12:53:07.902Z,32.30
2018-08-30T12:55:36.974Z,32.40
2018-08-30T12:58:06.960Z,32.40
2018-08-30T13:00:36.100Z,32.40
2018-08-30T13:03:05.299Z,32.50
2018-08-30T13:05:34.534Z,32.50
2018-08-30T13:08:03.486Z,32.30
2018-08-30T13:10:32.615Z,32.30
2018-08-30T13:13:01.642Z,32.20
2018-08-30T13:15:31.412Z,32.00
2018-08-30T13:18:00.819Z,32.00
2018-08-30T13:20:29.973Z,32.10
2018-08-30T13:22:59.455Z,32.20
2018-08-30T13:25:28.650Z,32.30
2018-08-30T13:27:57.841Z,32.30
2018-08-30T13:30:26.911Z,32.10
2018-08-30T13:32:56.237Z,32.10
2018-08-30T13:35:26.272Z,32.10
2018-08-30T13:37:55.360Z,32.20
2018-08-30T13:40:24.504Z,32.30
2018-08-30T13:42:53.695Z,32.30
2018-08-30T13:45:22.781Z,32.40
2018-08-30T13:47:51.877Z,32.30
2018-08-30T13:50:20.883Z,32.30
2018-08-30T13:52:50.110Z,32.30
2018-08-30T13:55:19.209Z,32.30
2018-08-30T13:57:48.722Z,32.60
2018-08-30T14:00:17.546Z,32.70
2018-08-30T14:02:46.444Z,32.60
2018-08-30T14:05:15.478Z,32.80
2018-08-30T14:07:44.722Z,32.70
2018-08-30T14:10:14.107Z,32.70
2018-08-30T14:12:42.947Z,32.60
2018-08-30T14:15:12.395Z,32.70
2018-08-30T14:17:40.989Z,32.60
2018-08-30T14:20:09.968Z,32.50
2018-08-30T14:22:39.029Z,32.40
2018-08-30T14:25:08.179Z,32.40
2018-08-30T14:27:37.237Z,32.40
2018-08-30T14:30:06.330Z,32.20
2018-08-30T14:32:35.404Z,31.80
2018-08-30T14:35:04.509Z,31.30
2018-08-30T14:37:33.584Z,30.70
2018-08-30T14:40:02.701Z,30.20
2018-08-30T14:42:31.722Z,29.70
2018-08-30T14:45:00.761Z,29.30
2018-08-30T14:47:29.892Z,28.90
2018-08-30T14:49:58.894Z,28.70
2018-08-30T14:52:27.955Z,28.40
2018-08-30T14:54:57.033Z,28.30
2018-08-30T14:57:26.174Z,28.10
2018-08-30T14:59:55.189Z,28.00
2018-08-30T15:02:24.359Z,27.90
2018-08-30T15:04:53.378Z,27.80
2018-08-30T15:07:23.242Z,27.70
2018-08-30T15:09:53.232Z,27.60
2018-08-30T15:12:22.351Z,27.50
2018-08-30T15:14:51.969Z,27.30
2018-08-30T15:17:21.232Z,27.10
2018-08-30T15:19:56.487Z,27.00
2018-08-30T15:22:25.680Z,26.90
2018-08-30T15:24:54.773Z,26.70
2018-08-30T15:27:24.413Z,26.70
2018-08-30T15:29:53.625Z,26.60
2018-08-30T15:32:22.671Z,26.50
2018-08-30T15:34:52.233Z,26.40
2018-08-30T15:37:21.273Z,26.30
2018-08-30T15:39:50.665Z,26.30
2018-08-30T15:42:20.221Z,26.20
2018-08-30T15:44:50.382Z,26.10
2018-08-30T15:47:21.974Z,26.10
2018-08-30T15:49:51.007Z,26.10
2018-08-30T15:52:20.070Z,26.00
2018-08-30T15:54:49.117Z,25.20
2018-08-30T15:57:18.263Z,24.40
2018-08-30T15:59:47.257Z,23.90
2018-08-30T16:02:16.320Z,23.30
2018-08-30T16:04:45.344Z,22.70
2018-08-30T16:07:14.415Z,22.30
2018-08-30T16:09:43.425Z,21.90
2018-08-30T16:12:12.482Z,21.70
2018-08-30T16:14:41.590Z,21.50
2018-08-30T16:17:10.767Z,21.20
2018-08-30T16:19:39.735Z,20.90
2018-08-30T16:22:09.181Z,20.70
2018-08-30T16:24:38.241Z,20.50
2018-08-30T16:27:07.385Z,20.20
2018-08-30T16:29:36.481Z,19.90
2018-08-30T16:32:05.585Z,19.70
2018-08-30T16:34:34.680Z,19.60
2018-08-30T16:37:03.733Z,19.60
2018-08-30T16:39:32.741Z,19.60
2018-08-30T16:42:04.184Z,19.70
2018-08-30T16:44:33.265Z,19.60
2018-08-30T16:47:02.347Z,19.50
2018-08-30T16:49:31.369Z,19.50
2018-08-30T16:52:00.421Z,19.50
2018-08-30T16:54:29.485Z,19.60
2018-08-30T16:57:02.293Z,19.50
2018-08-30T16:59:31.357Z,19.30
2018-08-30T17:02:00.510Z,19.00
2018-08-30T17:04:29.537Z,18.60
2018-08-30T17:06:58.675Z,18.30
2018-08-30T17:09:27.747Z,18.10
2018-08-30T17:11:56.927Z,17.90
2018-08-30T17:14:26.053Z,17.70
2018-08-30T17:16:55.099Z,17.50
2018-08-30T17:19:29.881Z,17.40
2018-08-30T17:21:58.922Z,17.30
2018-08-30T17:24:28.054Z,17.30
2018-08-30T17:26:57.155Z,17.30
2018-08-30T17:29:26.232Z,17.30
2018-08-30T17:31:55.282Z,17.30
2018-08-30T17:37:27.769Z,17.30
2018-08-30T17:39:57.192Z,17.30
2018-08-30T17:42:26.261Z,17.40
2018-08-30T17:44:55.659Z,17.50
2018-08-30T17:47:24.732Z,17.60
2018-08-30T17:49:53.790Z,17.70
2018-08-30T17:52:22.874Z,17.70
2018-08-30T17:54:52.044Z,17.70
2018-08-30T17:57:21.109Z,17.70
2018-08-30T17:59:52.113Z,17.80
2018-08-30T18:02:21.187Z,17.80
2018-08-30T18:04:50.218Z,17.70
2018-08-30T18:07:19.288Z,17.70
2018-08-30T18:09:48.310Z,17.70
2018-08-30T18:12:17.539Z,17.70
2018-08-30T18:14:46.507Z,17.70
2018-08-30T18:17:15.596Z,17.80
2018-08-30T18:19:44.694Z,17.80
2018-08-30T18:22:13.764Z,17.80
2018-08-30T18:24:42.785Z,17.70
2018-08-30T18:27:11.850Z,17.70
2018-08-30T18:29:40.995Z,17.60
2018-08-30T18:32:10.147Z,17.50
2018-08-30T18:34:39.245Z,17.50
2018-08-30T18:37:08.617Z,17.40
2018-08-30T18:39:37.756Z,17.40
2018-08-30T18:42:06.914Z,17.40
2018-08-30T18:44:36.048Z,17.40
2018-08-30T18:47:05.232Z,17.30
2018-08-30T18:49:34.523Z,17.30
2018-08-30T18:52:03.599Z,17.20
2018-08-30T18:54:32.609Z,17.20
2018-08-30T18:57:01.741Z,17.10
2018-08-30T18:59:30.881Z,17.10
2018-08-30T19:02:00.293Z,17.10
2018-08-30T19:04:29.314Z,17.10
2018-08-30T19:06:58.398Z,17.00
2018-08-30T19:09:27.783Z,17.00
2018-08-30T19:11:56.822Z,17.00
2018-08-30T19:14:25.965Z,17.00
2018-08-30T19:17:00.402Z,17.00
2018-08-30T19:19:30.211Z,17.00
2018-08-30T19:21:59.412Z,17.00
2018-08-30T19:25:36.373Z,17.00
2018-08-30T19:28:05.491Z,17.10
2018-08-30T19:30:34.765Z,17.10
2018-08-30T19:33:03.869Z,17.10
2018-08-30T19:35:38.053Z,17.10
2018-08-30T19:40:20.099Z,17.20
2018-08-30T19:42:49.177Z,17.20
2018-08-30T19:45:18.242Z,17.20
2018-08-30T19:47:48.196Z,17.30
2018-08-30T19:50:17.272Z,17.20
2018-08-30T19:52:46.333Z,17.20
2018-08-30T19:55:16.665Z,17.20
2018-08-30T19:57:46.156Z,17.10
2018-08-30T20:00:15.774Z,17.10
2018-08-30T20:02:44.863Z,17.10
2018-08-30T20:05:14.100Z,17.10
2018-08-30T20:07:43.231Z,17.10
2018-08-30T20:10:12.289Z,17.00
2018-08-30T20:12:41.307Z,17.00
2018-08-30T20:15:10.529Z,17.00
2018-08-30T20:17:39.575Z,16.90
2018-08-30T20:20:08.815Z,16.80
2018-08-30T20:22:38.002Z,16.70
2018-08-30T20:25:07.608Z,16.70
2018-08-30T20:27:36.644Z,16.60
2018-08-30T20:30:05.824Z,16.60
2018-08-30T20:32:34.923Z,16.50
2018-08-30T20:35:04.093Z,16.40
2018-08-30T20:37:33.172Z,16.40
2018-08-30T20:40:02.261Z,16.40
2018-08-30T20:42:31.329Z,16.40
2018-08-30T20:45:00.346Z,16.40
2018-08-30T20:47:29.453Z,16.40
2018-08-30T20:49:58.507Z,16.40
2018-08-30T20:52:27.616Z,16.30
2018-08-30T20:54:56.717Z,16.30
2018-08-30T20:57:26.563Z,16.20
2018-08-30T20:59:55.905Z,16.30
2018-08-30T21:02:25.297Z,16.30
2018-08-30T21:04:55.445Z,16.30
2018-08-30T21:07:25.146Z,16.30
2018-08-30T21:09:54.250Z,16.30
2018-08-30T21:12:23.595Z,16.30
2018-08-30T21:14:52.629Z,16.30
2018-08-30T21:17:21.773Z,16.30
2018-08-30T21:19:50.856Z,16.40
2018-08-30T21:22:19.954Z,16.40
2018-08-30T21:24:50.068Z,16.50
2018-08-30T21:27:21.924Z,16.50
2018-08-30T21:29:51.505Z,16.50
2018-08-30T21:32:22.546Z,16.60
2018-08-30T21:34:51.857Z,16.60
2018-08-30T21:37:20.885Z,16.60
2018-08-30T21:39:51.253Z,16.70
2018-08-30T21:42:20.622Z,16.70
2018-08-30T21:44:49.781Z,16.70
2018-08-30T21:47:18.858Z,16.60
2018-08-30T21:49:47.893Z,16.60
2018-08-30T21:52:16.913Z,16.60
2018-08-30T21:54:46.416Z,16.60
2018-08-30T21:57:15.577Z,16.60
2018-08-30T21:59:44.645Z,16.70
2018-08-30T22:02:14.900Z,16.60
2018-08-30T22:04:43.950Z,16.60
2018-08-30T22:07:13.989Z,16.60
2018-08-30T22:09:43.906Z,16.60
2018-08-30T22:12:12.966Z,16.50
2018-08-30T22:14:42.034Z,16.50
2018-08-30T22:17:11.365Z,16.50
2018-08-30T22:19:40.418Z,16.50
2018-08-30T22:22:09.550Z,16.50
2018-08-30T22:24:38.601Z,16.50
2018-08-30T22:27:07.683Z,16.50
2018-08-30T22:29:37.204Z,16.50
2018-08-30T22:32:07.553Z,16.50
2018-08-30T22:34:36.642Z,16.50
2018-08-30T22:37:05.656Z,16.40
2018-08-30T22:39:34.698Z,16.40
2018-08-30T22:42:03.723Z,16.40
2018-08-30T22:44:32.752Z,16.40
2018-08-30T22:47:01.767Z,16.40
2018-08-30T22:49:30.829Z,16.30
2018-08-30T22:52:00.229Z,16.20
2018-08-30T22:54:29.272Z,16.20
2018-08-30T22:56:58.508Z,16.10
2018-08-30T22:59:27.542Z,16.20
2018-08-30T23:01:56.597Z,16.20
2018-08-30T23:04:25.653Z,16.10
2018-08-30T23:06:54.705Z,16.20
2018-08-30T23:09:24.367Z,16.20
2018-08-30T23:11:53.401Z,16.10
2018-08-30T23:14:22.483Z,16.10
2018-08-30T23:16:51.532Z,16.00
2018-08-30T23:19:20.645Z,16.00
2018-08-30T23:21:49.700Z,16.00
2018-08-30T23:24:18.732Z,15.90
2018-08-30T23:26:47.809Z,15.90
2018-08-30T23:29:16.793Z,15.90
2018-08-30T23:31:45.849Z,15.90
2018-08-30T23:34:15.043Z,15.80
2018-08-30T23:36:44.107Z,15.80
2018-08-30T23:39:13.233Z,15.80
2018-08-30T23:41:42.283Z,15.70
2018-08-30T23:44:11.401Z,15.70
2018-08-30T23:46:40.488Z,15.70
2018-08-30T23:49:09.529Z,15.60
2018-08-30T23:51:38.582Z,15.60
2018-08-30T23:54:07.990Z,15.60
2018-08-30T23:56:36.989Z,15.60
2018-08-30T23:59:16.998Z,15.50
